createdAt,value
2022-10-05T00:01:35.131Z,5.07
2022-10-05T00:04:23.947Z,5.93
2022-10-05T00:06:59.251Z,5.07
2022-10-05T00:09:32.293Z,5.15
2022-10-05T00:12:04.543Z,5.43
2022-10-05T00:14:35.555Z,5.00
2022-10-05T00:17:05.595Z,5.25
2022-10-05T00:19:38.331Z,5.57
2022-10-05T00:22:16.911Z,5.53
2022-10-05T00:24:46.041Z,5.07
2022-10-05T00:27:31.628Z,4.63
2022-10-05T00:30:02.604Z,5.00
2022-10-05T00:32:30.341Z,4.90
2022-10-05T00:34:58.052Z,4.82
2022-10-05T00:37:25.868Z,5.25
2022-10-05T00:39:53.620Z,5.55
2022-10-05T00:42:41.803Z,4.82
2022-10-05T00:45:23.955Z,5.10
2022-10-05T00:48:20.163Z,5.38
2022-10-05T00:51:00.197Z,4.82
2022-10-05T00:54:05.241Z,4.70
2022-10-05T00:56:33.018Z,4.68
2022-10-05T00:59:19.388Z,5.07
2022-10-05T01:01:55.573Z,4.60
2022-10-05T01:04:39.297Z,5.32
2022-10-05T01:07:40.861Z,4.93
2022-10-05T01:10:35.404Z,4.80
2022-10-05T01:13:07.339Z,4.78
2022-10-05T01:15:49.235Z,4.80
2022-10-05T01:18:27.498Z,4.82
2022-10-05T01:21:11.944Z,5.00
2022-10-05T01:24:03.882Z,4.72
2022-10-05T01:27:08.874Z,4.75
2022-10-05T01:30:17.738Z,4.85
2022-10-05T01:33:01.095Z,5.10
2022-10-05T01:35:37.852Z,4.45
2022-10-05T01:38:08.779Z,4.85
2022-10-05T01:41:05.069Z,4.68
2022-10-05T01:43:49.131Z,5.07
2022-10-05T01:46:43.290Z,4.68
2022-10-05T01:49:20.167Z,5.30
2022-10-05T01:52:08.410Z,5.25
2022-10-05T01:55:03.979Z,5.75
2022-10-05T01:57:37.258Z,5.22
2022-10-05T02:00:20.003Z,5.47
2022-10-05T02:03:07.511Z,6.00
2022-10-05T02:05:51.762Z,5.80
2022-10-05T02:11:02.443Z,5.10
2022-10-05T02:13:43.924Z,5.63
2022-10-05T02:16:31.058Z,5.32
2022-10-05T02:19:11.853Z,5.03
2022-10-05T02:21:46.288Z,5.88
2022-10-05T02:24:26.947Z,5.55
2022-10-05T02:26:56.525Z,5.65
2022-10-05T02:29:27.651Z,5.90
2022-10-05T02:32:01.836Z,5.63
2022-10-05T02:37:38.455Z,5.60
2022-10-05T02:40:20.871Z,6.28
2022-10-05T02:42:54.609Z,5.75
2022-10-05T02:45:26.212Z,5.95
2022-10-05T02:48:22.429Z,5.57
2022-10-05T02:51:08.340Z,5.90
2022-10-05T02:54:10.193Z,5.82
2022-10-05T02:57:01.933Z,6.30
2022-10-05T02:59:43.084Z,6.05
2022-10-05T03:02:18.155Z,5.90
2022-10-05T03:05:01.697Z,6.05
2022-10-05T03:08:09.704Z,6.22
2022-10-05T03:10:47.699Z,6.50
2022-10-05T03:13:54.197Z,5.68
2022-10-05T03:16:45.162Z,5.82
2022-10-05T03:19:39.550Z,6.53
2022-10-05T03:22:32.177Z,6.78
2022-10-05T03:25:24.365Z,6.15
2022-10-05T03:28:09.781Z,5.90
2022-10-05T03:33:23.570Z,6.10
2022-10-05T03:36:11.843Z,6.82
2022-10-05T03:39:07.588Z,6.65
2022-10-05T03:41:45.133Z,6.90
2022-10-05T03:44:31.887Z,6.53
2022-10-05T03:47:30.397Z,6.78
2022-10-05T03:50:22.708Z,7.03
2022-10-05T03:53:14.975Z,6.80
2022-10-05T03:56:05.128Z,6.78
2022-10-05T03:58:55.772Z,7.38
2022-10-05T04:01:36.251Z,6.78
2022-10-05T04:04:07.153Z,7.03
2022-10-05T04:06:40.569Z,6.90
2022-10-05T04:09:16.267Z,6.75
2022-10-05T04:12:23.688Z,6.90
2022-10-05T04:14:59.826Z,7.35
2022-10-05T04:17:35.643Z,6.80
2022-10-05T04:20:21.253Z,6.93
2022-10-05T04:23:15.098Z,6.55
2022-10-05T04:25:57.514Z,6.30
2022-10-05T04:28:44.233Z,7.20
2022-10-05T04:31:21.278Z,7.32
2022-10-05T04:34:00.520Z,6.43
2022-10-05T04:36:38.254Z,6.00
2022-10-05T04:39:15.622Z,6.60
2022-10-05T04:41:49.772Z,6.35
2022-10-05T04:44:27.767Z,6.47
2022-10-05T04:47:13.110Z,6.50
2022-10-05T04:50:01.664Z,5.95
2022-10-05T04:53:05.574Z,6.28
2022-10-05T04:56:17.813Z,6.38
2022-10-05T04:58:58.635Z,6.20
2022-10-05T05:01:41.527Z,6.00
2022-10-05T05:04:32.219Z,6.25
2022-10-05T05:07:42.317Z,6.38
2022-10-05T05:10:23.914Z,5.78
2022-10-05T05:13:09.588Z,5.82
2022-10-05T05:15:53.945Z,5.30
2022-10-05T05:18:21.905Z,5.28
2022-10-05T05:21:02.247Z,5.07
2022-10-05T05:23:59.324Z,5.53
2022-10-05T05:27:06.073Z,4.68
2022-10-05T05:30:00.378Z,5.60
2022-10-05T05:32:44.023Z,6.07
2022-10-05T05:35:39.958Z,5.85
2022-10-05T05:38:32.808Z,5.30
2022-10-05T05:41:34.531Z,6.18
2022-10-05T05:44:21.916Z,5.80
2022-10-05T05:47:28.198Z,5.57
2022-10-05T05:50:32.305Z,5.40
2022-10-05T05:56:01.255Z,5.72
2022-10-05T05:59:00.761Z,5.45
2022-10-05T06:01:49.011Z,6.07
2022-10-05T06:04:28.216Z,6.25
2022-10-05T06:06:58.146Z,5.13
2022-10-05T06:09:50.377Z,5.93
2022-10-05T06:12:37.268Z,5.70
2022-10-05T06:15:34.487Z,6.35
2022-10-05T06:18:10.565Z,5.78
2022-10-05T06:21:05.748Z,6.15
2022-10-05T06:23:48.669Z,5.88
2022-10-05T06:26:50.817Z,5.72
2022-10-05T06:29:23.785Z,5.90
2022-10-05T06:32:13.266Z,5.65
2022-10-05T06:35:06.121Z,5.97
2022-10-05T06:38:04.501Z,6.15
2022-10-05T06:40:41.710Z,5.55
2022-10-05T06:43:40.411Z,5.55
2022-10-05T06:46:58.076Z,5.65
2022-10-05T06:49:49.327Z,5.72
2022-10-05T06:53:02.618Z,5.65
2022-10-05T06:55:37.518Z,5.00
2022-10-05T06:58:13.568Z,5.15
2022-10-05T07:00:54.037Z,5.10
2022-10-05T07:03:44.795Z,5.15
2022-10-05T07:06:46.575Z,5.20
2022-10-05T07:09:53.407Z,4.50
2022-10-05T07:12:58.611Z,4.68
2022-10-05T07:15:56.551Z,4.47
2022-10-05T07:18:46.267Z,4.60
2022-10-05T07:25:08.408Z,4.35
2022-10-05T07:27:59.714Z,4.13
2022-10-05T07:30:28.488Z,4.30
2022-10-05T07:33:05.358Z,4.00
2022-10-05T07:36:06.403Z,4.00
2022-10-05T07:38:54.684Z,3.50
2022-10-05T07:41:32.688Z,3.67
2022-10-05T07:44:18.504Z,3.38
2022-10-05T07:47:30.277Z,3.45
2022-10-05T07:50:20.340Z,3.33
2022-10-05T07:53:15.137Z,3.30
2022-10-05T07:56:00.178Z,3.15
2022-10-05T07:58:44.207Z,3.08
2022-10-05T08:01:27.577Z,3.17
2022-10-05T08:04:11.367Z,3.20
2022-10-05T08:06:42.818Z,3.17
2022-10-05T08:09:45.513Z,3.30
2022-10-05T08:12:16.326Z,3.08
2022-10-05T08:15:14.321Z,3.00
2022-10-05T08:17:55.217Z,3.33
2022-10-05T08:20:41.623Z,2.83
2022-10-05T08:23:25.849Z,3.13
2022-10-05T08:26:03.699Z,3.25
2022-10-05T08:28:41.695Z,3.05
2022-10-05T08:31:20.642Z,2.97
2022-10-05T08:33:54.325Z,2.90
2022-10-05T08:36:55.707Z,3.25
2022-10-05T08:39:29.717Z,3.05
2022-10-05T08:42:09.359Z,3.47
2022-10-05T08:44:40.416Z,3.40
2022-10-05T08:47:08.379Z,2.92
2022-10-05T08:50:13.190Z,4.07
2022-10-05T08:53:04.449Z,3.30
2022-10-05T08:56:06.808Z,3.10
2022-10-05T08:58:38.988Z,2.83
2022-10-05T09:01:22.112Z,3.33
2022-10-05T09:04:15.446Z,3.20
2022-10-05T09:07:16.603Z,3.17
2022-10-05T09:10:15.433Z,3.22
2022-10-05T09:12:55.203Z,3.20
2022-10-05T09:15:44.021Z,3.10
2022-10-05T09:18:30.291Z,2.45
2022-10-05T09:21:10.470Z,2.63
2022-10-05T09:23:47.402Z,2.78
2022-10-05T09:26:42.655Z,2.63
2022-10-05T09:29:43.856Z,2.70
2022-10-05T09:32:49.536Z,2.50
2022-10-05T09:38:12.403Z,2.38
2022-10-05T09:40:58.721Z,2.20
2022-10-05T09:43:40.391Z,2.30
2022-10-05T09:46:33.539Z,2.30
2022-10-05T09:49:07.531Z,2.40
2022-10-05T09:52:13.954Z,2.60
2022-10-05T09:55:21.170Z,2.85
2022-10-05T09:58:04.430Z,2.50
2022-10-05T10:00:34.979Z,2.70
2022-10-05T10:03:05.878Z,2.50
2022-10-05T10:05:49.681Z,2.80
2022-10-05T10:08:45.591Z,3.13
2022-10-05T10:11:41.322Z,2.70
2022-10-05T10:14:37.151Z,2.58
2022-10-05T10:17:26.822Z,2.80
2022-10-05T10:20:16.019Z,2.65
2022-10-05T10:23:04.941Z,2.70
2022-10-05T10:25:47.580Z,2.80
2022-10-05T10:28:52.494Z,2.58
2022-10-05T10:32:14.585Z,2.70
2022-10-05T10:35:07.038Z,2.88
2022-10-05T10:37:40.575Z,3.03
2022-10-05T10:40:23.659Z,3.10
2022-10-05T10:43:22.271Z,2.83
2022-10-05T10:46:20.697Z,2.60
2022-10-05T10:48:49.958Z,2.70
2022-10-05T10:51:56.436Z,2.40
2022-10-05T10:55:05.762Z,2.45
2022-10-05T10:57:59.370Z,2.58
2022-10-05T11:00:44.129Z,2.50
2022-10-05T11:03:44.862Z,2.83
2022-10-05T11:07:03.350Z,2.28
2022-10-05T11:09:34.084Z,2.70
2022-10-05T11:12:13.937Z,2.10
2022-10-05T11:15:06.729Z,2.67
2022-10-05T11:18:04.693Z,2.55
2022-10-05T11:20:35.428Z,2.60
2022-10-05T11:23:34.168Z,2.17
2022-10-05T11:26:32.966Z,2.50
2022-10-05T11:29:38.563Z,2.20
2022-10-05T11:35:24.876Z,2.40
2022-10-05T11:38:28.363Z,2.60
2022-10-05T11:41:05.212Z,2.40
2022-10-05T11:44:19.197Z,2.70
2022-10-05T11:47:21.335Z,2.83
2022-10-05T11:50:16.677Z,2.25
2022-10-05T11:53:07.706Z,2.10
2022-10-05T11:55:44.080Z,2.35
2022-10-05T11:58:24.038Z,2.55
2022-10-05T12:01:11.383Z,2.20
2022-10-05T12:04:04.221Z,1.83
2022-10-05T12:06:59.525Z,2.20
2022-10-05T12:13:01.369Z,2.07
2022-10-05T12:15:52.692Z,2.15
2022-10-05T12:18:28.675Z,2.47
2022-10-05T12:21:46.635Z,2.20
2022-10-05T12:24:37.587Z,2.30
2022-10-05T12:27:25.436Z,1.95
2022-10-05T12:30:19.748Z,2.65
2022-10-05T12:33:02.540Z,2.40
2022-10-05T12:35:53.552Z,2.20
2022-10-05T12:38:33.834Z,2.20
2022-10-05T12:41:07.951Z,2.38
2022-10-05T12:44:02.390Z,2.33
2022-10-05T12:46:51.044Z,2.45
2022-10-05T12:49:33.790Z,2.22
2022-10-05T12:52:26.832Z,2.30
2022-10-05T12:55:05.430Z,2.17
2022-10-05T12:57:42.017Z,2.55
2022-10-05T13:00:15.218Z,2.28
2022-10-05T13:02:50.904Z,2.35
2022-10-05T13:05:38.431Z,2.35
2022-10-05T13:08:13.451Z,2.30
2022-10-05T13:10:45.312Z,2.40
2022-10-05T13:13:46.782Z,2.50
2022-10-05T13:16:27.786Z,2.13
2022-10-05T13:19:14.349Z,2.10
2022-10-05T13:22:16.700Z,2.03
2022-10-05T13:25:04.877Z,2.20
2022-10-05T13:27:40.089Z,2.00
2022-10-05T13:30:17.025Z,2.08
2022-10-05T13:32:52.154Z,2.00
2022-10-05T13:35:25.072Z,2.03
2022-10-05T13:38:24.005Z,2.20
2022-10-05T13:41:12.154Z,2.10
2022-10-05T13:43:45.797Z,2.10
2022-10-05T13:46:27.762Z,1.93
2022-10-05T13:49:33.448Z,2.42
2022-10-05T13:55:12.418Z,1.80
2022-10-05T13:58:05.985Z,1.88
2022-10-05T14:00:53.077Z,2.05
2022-10-05T14:04:13.379Z,1.90
2022-10-05T14:06:41.363Z,1.90
2022-10-05T14:09:25.422Z,2.20
2022-10-05T14:12:14.915Z,2.08
2022-10-05T14:14:50.365Z,2.10
2022-10-05T14:17:38.041Z,2.20
2022-10-05T14:20:23.850Z,2.17
2022-10-05T14:23:00.697Z,2.30
2022-10-05T14:25:30.296Z,2.13
2022-10-05T14:28:00.042Z,2.00
2022-10-05T14:30:30.510Z,1.77
2022-10-05T14:33:04.168Z,2.40
2022-10-05T14:35:57.000Z,2.00
2022-10-05T14:38:31.943Z,2.20
2022-10-05T14:41:25.466Z,1.98
2022-10-05T14:44:27.154Z,2.10
2022-10-05T14:47:02.716Z,1.92
2022-10-05T14:49:37.242Z,2.17
2022-10-05T14:55:01.052Z,1.90
2022-10-05T14:57:50.299Z,2.00
2022-10-05T15:00:19.045Z,2.00
2022-10-05T15:03:20.334Z,2.08
2022-10-05T15:05:55.848Z,1.83
2022-10-05T15:08:41.564Z,2.05
2022-10-05T15:11:37.178Z,2.08
2022-10-05T15:14:25.223Z,2.10
2022-10-05T15:17:02.481Z,2.67
2022-10-05T15:19:39.291Z,2.30
2022-10-05T15:22:31.638Z,2.45
2022-10-05T15:25:12.919Z,2.85
2022-10-05T15:28:04.868Z,2.95
2022-10-05T15:30:37.743Z,2.90
2022-10-05T15:33:24.567Z,2.45
2022-10-05T15:36:05.344Z,2.75
2022-10-05T15:39:26.976Z,2.47
2022-10-05T15:42:00.342Z,2.88
2022-10-05T15:45:06.365Z,2.55
2022-10-05T15:47:56.242Z,2.15
2022-10-05T15:50:28.141Z,2.50
2022-10-05T15:52:58.967Z,2.60
2022-10-05T15:55:35.374Z,2.20
2022-10-05T15:58:18.141Z,2.28
2022-10-05T16:00:49.237Z,2.42
2022-10-05T16:03:49.813Z,2.08
2022-10-05T16:06:48.450Z,2.28
2022-10-05T16:09:52.829Z,2.60
2022-10-05T16:12:50.198Z,2.70
2022-10-05T16:15:42.714Z,1.98
2022-10-05T16:18:18.308Z,1.98
2022-10-05T16:21:09.522Z,1.75
2022-10-05T16:24:06.635Z,2.00
2022-10-05T16:26:59.338Z,2.00
2022-10-05T16:29:46.593Z,2.35
2022-10-05T16:32:25.096Z,2.03
2022-10-05T16:35:17.811Z,2.10
2022-10-05T16:38:00.577Z,2.10
2022-10-05T16:41:01.932Z,1.73
2022-10-05T16:44:13.147Z,1.75
2022-10-05T16:46:44.291Z,1.83
2022-10-05T16:49:22.041Z,1.85
2022-10-05T16:51:53.138Z,1.80
2022-10-05T16:54:39.059Z,1.75
2022-10-05T16:57:23.094Z,2.00
2022-10-05T17:00:20.428Z,2.10
2022-10-05T17:03:12.957Z,2.00
2022-10-05T17:06:00.789Z,1.73
2022-10-05T17:09:10.664Z,1.95
2022-10-05T17:12:13.826Z,1.90
2022-10-05T17:15:03.700Z,1.90
2022-10-05T17:18:09.188Z,1.90
2022-10-05T17:20:45.585Z,1.85
2022-10-05T17:23:39.909Z,1.95
2022-10-05T17:26:22.554Z,2.17
2022-10-05T17:29:25.106Z,1.70
2022-10-05T17:32:07.835Z,1.90
2022-10-05T17:35:02.839Z,1.80
2022-10-05T17:37:31.977Z,1.92
2022-10-05T17:40:02.361Z,1.77
2022-10-05T17:42:30.582Z,1.88
2022-10-05T17:45:21.427Z,2.00
2022-10-05T17:48:04.891Z,1.67
2022-10-05T17:51:02.456Z,2.05
2022-10-05T17:54:05.390Z,1.73
2022-10-05T17:56:56.113Z,2.00
2022-10-05T17:59:44.535Z,1.90
2022-10-05T18:02:23.290Z,2.22
2022-10-05T18:05:01.498Z,1.88
2022-10-05T18:07:29.611Z,2.20
2022-10-05T18:10:01.050Z,2.00
2022-10-05T18:13:08.019Z,1.80
2022-10-05T18:15:46.535Z,2.10
2022-10-05T18:18:34.633Z,2.03
2022-10-05T18:21:15.174Z,2.00
2022-10-05T18:23:52.545Z,2.17
2022-10-05T18:26:51.989Z,1.88
2022-10-05T18:30:05.377Z,1.67
2022-10-05T18:32:58.678Z,1.90
2022-10-05T18:35:42.432Z,2.30
2022-10-05T18:38:19.230Z,1.90
2022-10-05T18:41:02.668Z,2.38
2022-10-05T18:43:42.594Z,2.00
2022-10-05T18:46:16.594Z,2.08
2022-10-05T18:48:56.468Z,1.95
2022-10-05T18:51:51.657Z,1.73
2022-10-05T18:54:26.973Z,2.28
2022-10-05T18:56:55.130Z,1.80
2022-10-05T18:59:37.936Z,2.38
2022-10-05T19:02:19.731Z,1.70
2022-10-05T19:04:50.665Z,1.88
2022-10-05T19:07:32.729Z,1.92
2022-10-05T19:10:04.912Z,2.17
2022-10-05T19:12:57.765Z,2.17
2022-10-05T19:15:53.455Z,2.17
2022-10-05T19:18:41.935Z,1.98
2022-10-05T19:21:12.562Z,2.00
2022-10-05T19:24:06.387Z,2.35
2022-10-05T19:26:42.332Z,1.98
2022-10-05T19:29:27.030Z,2.28
2022-10-05T19:32:14.921Z,2.17
2022-10-05T19:34:45.630Z,1.90
2022-10-05T19:37:23.380Z,2.00
2022-10-05T19:40:10.208Z,2.10
2022-10-05T19:42:59.065Z,2.08
2022-10-05T19:45:31.912Z,2.22
2022-10-05T19:48:28.172Z,1.75
2022-10-05T19:50:59.001Z,2.35
2022-10-05T19:53:29.849Z,2.70
2022-10-05T19:56:21.635Z,2.35
2022-10-05T19:58:56.337Z,1.70
2022-10-05T20:01:35.434Z,2.10
2022-10-05T20:04:05.006Z,2.03
2022-10-05T20:06:33.269Z,2.20
2022-10-05T20:09:20.128Z,2.10
2022-10-05T20:11:52.773Z,1.85
2022-10-05T20:14:57.252Z,2.00
2022-10-05T20:17:49.322Z,1.63
2022-10-05T20:20:34.597Z,0.90
2022-10-05T20:23:25.515Z,0.93
2022-10-05T20:26:12.142Z,1.20
2022-10-05T20:28:40.058Z,1.20
2022-10-05T20:31:08.556Z,1.00
2022-10-05T20:33:36.491Z,1.10
2022-10-05T20:36:06.876Z,1.27
2022-10-05T20:38:40.597Z,0.90
2022-10-05T20:41:09.826Z,1.05
2022-10-05T20:43:39.288Z,1.38
2022-10-05T20:46:08.606Z,0.90
2022-10-05T20:48:36.905Z,1.00
2022-10-05T20:51:04.802Z,1.10
2022-10-05T20:53:33.692Z,1.33
2022-10-05T20:56:04.639Z,1.00
2022-10-05T20:58:32.679Z,1.05
2022-10-05T21:01:15.804Z,1.10
2022-10-05T21:03:44.036Z,1.20
2022-10-05T21:06:12.632Z,0.98
2022-10-05T21:08:40.504Z,1.20
2022-10-05T21:11:11.261Z,0.95
2022-10-05T21:13:45.569Z,0.90
2022-10-05T21:16:17.532Z,1.00
2022-10-05T21:18:49.398Z,1.33
2022-10-05T21:21:18.422Z,1.48
2022-10-05T21:23:48.234Z,1.25
2022-10-05T21:26:16.341Z,1.05
2022-10-05T21:28:44.318Z,1.10
2022-10-05T21:31:12.367Z,1.00
2022-10-05T21:33:40.601Z,1.10
2022-10-05T21:36:08.396Z,1.25
2022-10-05T21:38:37.107Z,1.17
2022-10-05T21:41:05.038Z,1.05
2022-10-05T21:43:33.542Z,1.00
2022-10-05T21:46:02.226Z,1.13
2022-10-05T21:48:32.994Z,1.20
2022-10-05T21:51:03.487Z,1.40
2022-10-05T21:53:35.025Z,1.00
2022-10-05T21:56:06.960Z,0.90
2022-10-05T21:58:37.715Z,1.00
2022-10-05T22:01:05.756Z,1.02
2022-10-05T22:03:34.072Z,1.08
2022-10-05T22:06:03.640Z,1.00
2022-10-05T22:08:33.572Z,1.13
2022-10-05T22:11:11.371Z,0.90
2022-10-05T22:13:48.382Z,1.10
2022-10-05T22:16:18.232Z,1.30
2022-10-05T22:18:46.338Z,0.80
2022-10-05T22:21:14.781Z,0.85
2022-10-05T22:23:45.047Z,0.90
2022-10-05T22:26:16.637Z,0.80
2022-10-05T22:28:46.695Z,0.90
2022-10-05T22:31:14.873Z,0.90
2022-10-05T22:33:42.694Z,0.73
2022-10-05T22:36:11.353Z,0.80
2022-10-05T22:38:39.076Z,0.90
2022-10-05T22:41:11.596Z,1.00
2022-10-05T22:43:39.656Z,1.00
2022-10-05T22:46:12.405Z,1.05
2022-10-05T22:48:40.906Z,1.20
2022-10-05T22:51:09.255Z,1.00
2022-10-05T22:53:37.337Z,1.10
2022-10-05T22:56:10.582Z,1.00
2022-10-05T22:58:38.894Z,1.27
2022-10-05T23:01:17.964Z,0.98
2022-10-05T23:03:46.157Z,1.10
2022-10-05T23:06:20.459Z,0.90
2022-10-05T23:08:51.410Z,1.10
2022-10-05T23:11:27.633Z,1.05
2022-10-05T23:13:56.955Z,1.08
2022-10-05T23:16:27.697Z,1.13
2022-10-05T23:18:58.390Z,1.10
2022-10-05T23:21:30.255Z,1.70
2022-10-05T23:23:58.063Z,1.23
2022-10-05T23:26:26.350Z,1.60
2022-10-05T23:28:54.280Z,1.30
2022-10-05T23:31:29.089Z,1.50
2022-10-05T23:36:27.708Z,1.38
2022-10-05T23:38:55.546Z,2.28
2022-10-05T23:41:23.586Z,1.20
2022-10-05T23:43:52.020Z,1.40
2022-10-05T23:46:19.975Z,1.63
2022-10-05T23:48:50.212Z,1.27
2022-10-05T23:51:18.690Z,1.33
2022-10-05T23:53:46.561Z,1.63
2022-10-05T23:56:14.503Z,1.60
2022-10-05T23:58:42.475Z,1.92
